createdAt,value
2023-02-21T00:00:49.364Z,42.40
2023-02-21T00:01:49.343Z,48.40
2023-02-21T00:02:49.317Z,41.70
2023-02-21T00:03:49.292Z,45.50
2023-02-21T00:04:49.264Z,41.60
2023-02-21T00:05:49.401Z,43.90
2023-02-21T00:06:49.214Z,41.10
2023-02-21T00:07:49.195Z,42.00
2023-02-21T00:08:49.162Z,40.90
2023-02-21T00:09:49.146Z,43.90
2023-02-21T00:10:49.113Z,43.40
2023-02-21T00:11:49.088Z,40.90
2023-02-21T00:12:49.079Z,44.10
2023-02-21T00:13:49.052Z,46.30
2023-02-21T00:14:49.011Z,43.00
2023-02-21T00:15:48.992Z,43.90
2023-02-21T00:16:48.976Z,43.90
2023-02-21T00:17:48.942Z,41.20
2023-02-21T00:18:48.915Z,43.50
2023-02-21T00:19:48.892Z,44.00
2023-02-21T00:20:48.857Z,44.60
2023-02-21T00:21:48.833Z,43.60
2023-02-21T00:22:48.809Z,44.30
2023-02-21T00:23:48.782Z,43.00
2023-02-21T00:24:48.752Z,45.70
2023-02-21T00:25:48.728Z,46.70
2023-02-21T00:26:48.701Z,43.90
2023-02-21T00:27:48.684Z,41.80
2023-02-21T00:28:48.675Z,47.10
2023-02-21T00:29:48.631Z,45.60
2023-02-21T00:30:48.669Z,46.40
2023-02-21T00:31:48.586Z,44.40
2023-02-21T00:32:48.613Z,45.20
2023-02-21T00:33:48.522Z,42.00
2023-02-21T00:34:48.496Z,43.60
2023-02-21T00:35:48.475Z,44.80
2023-02-21T00:36:48.443Z,45.70
2023-02-21T00:37:48.420Z,49.10
2023-02-21T00:38:48.396Z,44.40
2023-02-21T00:39:48.372Z,45.80
2023-02-21T00:40:48.348Z,48.10
2023-02-21T00:41:48.331Z,43.40
2023-02-21T00:42:48.291Z,45.40
2023-02-21T00:43:48.279Z,45.00
2023-02-21T00:44:48.258Z,47.60
2023-02-21T00:45:48.269Z,48.30
2023-02-21T00:46:48.189Z,46.30
2023-02-21T00:47:48.167Z,49.20
2023-02-21T00:48:48.138Z,46.00
2023-02-21T00:49:48.111Z,46.50
2023-02-21T00:50:48.093Z,46.00
2023-02-21T00:51:48.070Z,47.60
2023-02-21T00:52:48.032Z,46.10
2023-02-21T00:53:48.004Z,48.20
2023-02-21T00:54:50.496Z,48.30
2023-02-21T00:55:47.956Z,46.30
2023-02-21T00:56:47.925Z,46.60
2023-02-21T00:57:47.909Z,48.90
2023-02-21T00:58:47.881Z,48.90
2023-02-21T00:59:47.857Z,48.30
2023-02-21T01:00:47.848Z,50.10
2023-02-21T01:01:47.808Z,48.00
2023-02-21T01:02:47.777Z,51.00
2023-02-21T01:03:47.758Z,48.70
2023-02-21T01:04:47.732Z,50.30
2023-02-21T01:05:47.701Z,48.40
2023-02-21T01:06:47.672Z,47.00
2023-02-21T01:07:47.651Z,52.40
2023-02-21T01:08:47.627Z,49.60
2023-02-21T01:09:47.609Z,50.20
2023-02-21T01:10:47.582Z,50.20
2023-02-21T01:11:47.561Z,51.90
2023-02-21T01:12:47.539Z,50.80
2023-02-21T01:13:47.510Z,51.80
2023-02-21T01:14:47.484Z,49.50
2023-02-21T01:15:47.477Z,51.60
2023-02-21T01:16:47.445Z,50.90
2023-02-21T01:17:47.403Z,50.10
2023-02-21T01:18:47.375Z,49.80
2023-02-21T01:19:47.356Z,48.40
2023-02-21T01:20:47.319Z,51.60
2023-02-21T01:21:47.300Z,52.90
2023-02-21T01:22:47.276Z,51.80
2023-02-21T01:23:47.248Z,50.60
2023-02-21T01:24:47.231Z,54.30
2023-02-21T01:25:47.195Z,50.70
2023-02-21T01:26:47.174Z,51.00
2023-02-21T01:27:47.146Z,48.50
2023-02-21T01:28:47.115Z,46.60
2023-02-21T01:29:47.088Z,50.40
2023-02-21T01:30:47.101Z,52.80
2023-02-21T01:31:47.038Z,50.00
2023-02-21T01:32:47.040Z,54.40
2023-02-21T01:33:46.986Z,50.70
2023-02-21T01:34:46.967Z,53.50
2023-02-21T01:35:46.943Z,56.70
2023-02-21T01:36:46.917Z,51.60
2023-02-21T01:37:46.884Z,54.30
2023-02-21T01:38:46.863Z,51.90
2023-02-21T01:39:46.844Z,54.10
2023-02-21T01:40:46.814Z,51.10
2023-02-21T01:41:46.782Z,50.60
2023-02-21T01:42:47.626Z,52.70
2023-02-21T01:43:46.732Z,52.70
2023-02-21T01:44:46.713Z,54.20
2023-02-21T01:45:46.682Z,52.20
2023-02-21T01:46:46.660Z,54.40
2023-02-21T01:47:46.632Z,51.20
2023-02-21T01:48:46.628Z,51.80
2023-02-21T01:49:46.576Z,56.70
2023-02-21T01:50:46.601Z,54.90
2023-02-21T01:51:46.529Z,53.70
2023-02-21T01:52:46.502Z,51.80
2023-02-21T01:53:46.474Z,53.10
2023-02-21T01:54:46.460Z,53.50
2023-02-21T01:55:46.423Z,55.60
2023-02-21T01:56:46.402Z,54.70
2023-02-21T01:57:46.380Z,51.40
2023-02-21T01:58:46.351Z,53.20
2023-02-21T01:59:46.324Z,52.50
2023-02-21T02:00:46.306Z,54.10
2023-02-21T02:01:46.307Z,52.90
2023-02-21T02:02:46.253Z,53.60
2023-02-21T02:03:46.225Z,52.50
2023-02-21T02:04:46.285Z,52.50
2023-02-21T02:05:46.178Z,56.00
2023-02-21T02:06:46.158Z,54.30
2023-02-21T02:07:46.172Z,52.50
2023-02-21T02:08:46.158Z,51.40
2023-02-21T02:09:46.072Z,56.20
2023-02-21T02:10:46.052Z,57.00
2023-02-21T02:11:46.017Z,53.50
2023-02-21T02:12:45.992Z,53.20
2023-02-21T02:13:45.964Z,55.10
2023-02-21T02:14:45.945Z,55.30
2023-02-21T02:15:45.948Z,53.30
2023-02-21T02:16:45.922Z,53.10
2023-02-21T02:17:45.870Z,57.20
2023-02-21T02:18:45.870Z,56.80
2023-02-21T02:19:45.844Z,55.10
2023-02-21T02:20:45.814Z,56.40
2023-02-21T02:21:45.760Z,53.20
2023-02-21T02:22:45.738Z,53.70
2023-02-21T02:23:45.709Z,57.00
2023-02-21T02:24:45.687Z,58.60
2023-02-21T02:25:45.659Z,55.40
2023-02-21T02:26:45.634Z,55.30
2023-02-21T02:27:45.617Z,51.30
2023-02-21T02:28:45.593Z,56.60
2023-02-21T02:29:45.557Z,57.60
2023-02-21T02:30:45.542Z,53.90
2023-02-21T02:31:45.670Z,55.50
2023-02-21T02:32:45.486Z,55.30
2023-02-21T02:33:45.454Z,56.60
2023-02-21T02:34:45.433Z,55.50
2023-02-21T02:35:45.405Z,56.50
2023-02-21T02:36:45.400Z,57.60
2023-02-21T02:37:45.361Z,54.70
2023-02-21T02:38:45.330Z,58.40
2023-02-21T02:39:45.299Z,59.90
2023-02-21T02:40:45.282Z,52.90
2023-02-21T02:41:45.254Z,55.60
2023-02-21T02:42:45.225Z,57.30
2023-02-21T02:43:45.200Z,56.50
2023-02-21T02:44:45.186Z,52.80
2023-02-21T02:45:45.153Z,57.70
2023-02-21T02:46:45.128Z,55.80
2023-02-21T02:47:45.098Z,55.60
2023-02-21T02:48:45.074Z,58.40
2023-02-21T02:49:45.049Z,58.90
2023-02-21T02:50:45.026Z,57.30
2023-02-21T02:51:44.997Z,56.60
2023-02-21T02:52:44.989Z,57.50
2023-02-21T02:53:44.938Z,58.40
2023-02-21T02:54:44.918Z,54.50
2023-02-21T02:55:44.888Z,58.10
2023-02-21T02:56:44.874Z,56.60
2023-02-21T02:57:44.841Z,57.50
2023-02-21T02:58:44.824Z,57.30
2023-02-21T02:59:44.785Z,57.30
2023-02-21T03:00:44.774Z,58.80
2023-02-21T03:01:44.789Z,60.60
2023-02-21T03:02:44.723Z,60.10
2023-02-21T03:03:44.788Z,56.60
2023-02-21T03:04:44.659Z,60.00
2023-02-21T03:05:44.634Z,56.70
2023-02-21T03:06:44.622Z,62.10
2023-02-21T03:07:44.582Z,59.90
2023-02-21T03:08:44.583Z,62.40
2023-02-21T03:09:44.538Z,59.90
2023-02-21T03:10:44.510Z,58.60
2023-02-21T03:11:44.483Z,59.30
2023-02-21T03:12:44.456Z,57.80
2023-02-21T03:13:44.433Z,59.70
2023-02-21T03:14:44.404Z,62.90
2023-02-21T03:15:44.419Z,60.30
2023-02-21T03:16:44.354Z,62.20
2023-02-21T03:17:44.333Z,58.80
2023-02-21T03:18:44.304Z,58.10
2023-02-21T03:19:44.282Z,61.70
2023-02-21T03:20:44.251Z,59.70
2023-02-21T03:21:44.224Z,60.50
2023-02-21T03:22:44.209Z,61.20
2023-02-21T03:23:44.176Z,59.80
2023-02-21T03:24:44.173Z,64.70
2023-02-21T03:25:44.126Z,62.40
2023-02-21T03:26:44.113Z,65.20
2023-02-21T03:27:44.075Z,61.70
2023-02-21T03:28:44.057Z,60.90
2023-02-21T03:29:44.023Z,62.00
2023-02-21T03:30:44.008Z,64.70
2023-02-21T03:31:44.087Z,63.50
2023-02-21T03:32:43.947Z,61.40
2023-02-21T03:33:43.917Z,63.40
2023-02-21T03:34:43.896Z,65.50
2023-02-21T03:35:43.870Z,62.90
2023-02-21T03:36:43.847Z,64.10
2023-02-21T03:37:43.824Z,64.00
2023-02-21T03:38:43.801Z,65.20
2023-02-21T03:39:43.774Z,64.00
2023-02-21T03:40:43.772Z,63.80
2023-02-21T03:41:43.716Z,64.70
2023-02-21T03:42:43.692Z,59.90
2023-02-21T03:43:43.671Z,62.30
2023-02-21T03:44:43.640Z,65.40
2023-02-21T03:45:43.613Z,63.70
2023-02-21T03:46:43.676Z,64.20
2023-02-21T03:47:43.576Z,68.60
2023-02-21T03:48:43.546Z,64.40
2023-02-21T03:49:43.510Z,64.90
2023-02-21T03:50:43.487Z,65.60
2023-02-21T03:51:43.458Z,64.30
2023-02-21T03:52:43.442Z,67.80
2023-02-21T03:53:43.412Z,65.50
2023-02-21T03:54:43.389Z,65.50
2023-02-21T03:55:43.372Z,66.30
2023-02-21T03:56:43.354Z,66.40
2023-02-21T03:57:43.311Z,62.30
2023-02-21T03:58:43.287Z,69.70
2023-02-21T03:59:43.257Z,67.00
2023-02-21T04:00:43.260Z,68.60
2023-02-21T04:01:43.230Z,67.70
2023-02-21T04:02:43.187Z,67.20
2023-02-21T04:03:43.157Z,69.50
2023-02-21T04:04:43.144Z,69.40
2023-02-21T04:05:43.109Z,71.20
2023-02-21T04:06:43.084Z,71.00
2023-02-21T04:07:43.059Z,71.40
2023-02-21T04:08:43.035Z,71.20
2023-02-21T04:09:43.013Z,68.10
2023-02-21T04:10:51.638Z,72.70
2023-02-21T04:11:42.959Z,70.20
2023-02-21T04:12:42.983Z,67.80
2023-02-21T04:13:42.901Z,70.90
2023-02-21T04:14:42.882Z,76.40
2023-02-21T04:15:42.856Z,72.60
2023-02-21T04:16:42.829Z,71.00
2023-02-21T04:17:42.812Z,72.90
2023-02-21T04:18:42.784Z,70.20
2023-02-21T04:19:42.755Z,70.70
2023-02-21T04:20:42.727Z,74.00
2023-02-21T04:21:42.696Z,68.00
2023-02-21T04:22:45.739Z,78.30
2023-02-21T04:23:42.658Z,72.50
2023-02-21T04:24:42.634Z,71.90
2023-02-21T04:25:42.597Z,75.70
2023-02-21T04:26:42.582Z,71.60
2023-02-21T04:27:42.548Z,73.60
2023-02-21T04:28:42.549Z,72.00
2023-02-21T04:29:42.510Z,75.30
2023-02-21T04:30:42.546Z,77.30
2023-02-21T04:31:42.559Z,75.00
2023-02-21T04:32:42.560Z,71.20
2023-02-21T04:33:42.396Z,81.80
2023-02-21T04:34:42.371Z,79.00
2023-02-21T04:35:42.348Z,75.20
2023-02-21T04:36:42.332Z,77.20
2023-02-21T04:37:42.295Z,77.10
2023-02-21T04:38:42.271Z,80.90
2023-02-21T04:39:42.246Z,84.40
2023-02-21T04:40:42.228Z,76.80
2023-02-21T04:41:42.207Z,77.40
2023-02-21T04:42:42.165Z,76.80
2023-02-21T04:43:42.140Z,80.10
2023-02-21T04:44:44.730Z,83.20
2023-02-21T04:45:42.101Z,83.10
2023-02-21T04:46:42.064Z,81.10
2023-02-21T04:47:42.044Z,79.80
2023-02-21T04:48:42.014Z,82.50
2023-02-21T04:49:41.983Z,84.50
2023-02-21T04:50:41.963Z,85.30
2023-02-21T04:51:41.944Z,82.00
2023-02-21T04:52:41.915Z,83.30
2023-02-21T04:53:41.883Z,80.40
2023-02-21T04:54:41.860Z,84.60
2023-02-21T04:55:41.834Z,87.20
2023-02-21T04:56:41.895Z,89.10
2023-02-21T04:57:41.782Z,83.70
2023-02-21T04:58:45.510Z,81.30
2023-02-21T04:59:41.736Z,84.30
2023-02-21T05:00:41.735Z,83.70
2023-02-21T05:01:41.686Z,83.60
2023-02-21T05:02:41.660Z,85.00
2023-02-21T05:03:41.642Z,86.80
2023-02-21T05:04:41.612Z,83.50
2023-02-21T05:05:41.582Z,91.60
2023-02-21T05:06:41.558Z,79.70
2023-02-21T05:07:41.527Z,85.60
2023-02-21T05:08:41.499Z,80.90
2023-02-21T05:09:41.472Z,82.40
2023-02-21T05:10:45.717Z,84.00
2023-02-21T05:11:41.445Z,81.80
2023-02-21T05:12:41.404Z,81.00
2023-02-21T05:13:41.370Z,79.70
2023-02-21T05:14:41.349Z,82.80
2023-02-21T05:15:41.327Z,84.00
2023-02-21T05:16:41.373Z,78.60
2023-02-21T05:17:41.277Z,87.10
2023-02-21T05:18:41.250Z,81.30
2023-02-21T05:19:41.221Z,86.90
2023-02-21T05:20:41.195Z,84.30
2023-02-21T05:21:41.163Z,82.70
2023-02-21T05:22:41.157Z,84.10
2023-02-21T05:23:41.216Z,85.40
2023-02-21T05:24:41.098Z,84.80
2023-02-21T05:25:41.069Z,85.90
2023-02-21T05:26:41.038Z,82.10
2023-02-21T05:27:41.023Z,86.60
2023-02-21T05:28:40.999Z,84.70
2023-02-21T05:29:40.964Z,82.50
2023-02-21T05:30:41.112Z,85.30
2023-02-21T05:31:40.914Z,83.30
2023-02-21T05:32:40.909Z,88.70
2023-02-21T05:33:40.871Z,89.50
2023-02-21T05:34:40.875Z,89.00
2023-02-21T05:35:40.806Z,89.80
2023-02-21T05:36:41.207Z,90.20
2023-02-21T05:37:40.762Z,88.00
2023-02-21T05:38:40.729Z,85.30
2023-02-21T05:39:40.709Z,89.40
2023-02-21T05:40:40.679Z,92.60
2023-02-21T05:41:40.657Z,87.10
2023-02-21T05:42:40.636Z,90.70
2023-02-21T05:43:40.615Z,93.70
2023-02-21T05:44:40.603Z,91.20
2023-02-21T05:45:40.568Z,95.60
2023-02-21T05:46:40.539Z,91.20
2023-02-21T05:47:40.504Z,93.20
2023-02-21T05:48:40.498Z,93.50
2023-02-21T05:49:40.457Z,91.90
2023-02-21T05:50:40.423Z,94.00
2023-02-21T05:51:40.405Z,91.50
2023-02-21T05:52:40.371Z,90.00
2023-02-21T05:53:40.349Z,88.90
2023-02-21T05:54:40.323Z,93.00
2023-02-21T05:55:40.304Z,95.50
2023-02-21T05:56:40.288Z,89.00
2023-02-21T05:57:40.248Z,87.90
2023-02-21T05:58:40.222Z,94.80
2023-02-21T05:59:40.205Z,82.10
2023-02-21T06:00:40.165Z,92.40
2023-02-21T06:01:40.143Z,97.30
2023-02-21T06:02:40.117Z,98.50
2023-02-21T06:03:40.167Z,92.30
2023-02-21T06:04:40.115Z,96.10
2023-02-21T06:05:40.039Z,95.00
2023-02-21T06:06:40.016Z,93.10
2023-02-21T06:07:39.990Z,88.20
2023-02-21T06:08:39.963Z,89.80
2023-02-21T06:09:39.944Z,97.20
2023-02-21T06:10:39.908Z,90.30
2023-02-21T06:11:39.884Z,83.70
2023-02-21T06:12:39.863Z,91.00
2023-02-21T06:13:39.835Z,89.70
2023-02-21T06:14:39.802Z,85.40
2023-02-21T06:15:39.810Z,90.80
2023-02-21T06:16:39.757Z,87.00
2023-02-21T06:17:39.733Z,91.60
2023-02-21T06:18:39.700Z,88.10
2023-02-21T06:19:39.678Z,88.30
2023-02-21T06:20:39.678Z,87.00
2023-02-21T06:21:39.627Z,85.60
2023-02-21T06:22:39.603Z,90.30
2023-02-21T06:23:39.574Z,87.40
2023-02-21T06:24:39.553Z,83.00
2023-02-21T06:25:39.524Z,83.60
2023-02-21T06:26:39.494Z,80.80
2023-02-21T06:27:39.476Z,77.40
2023-02-21T06:28:39.444Z,81.50
2023-02-21T06:29:39.428Z,84.00
2023-02-21T06:30:39.484Z,81.20
2023-02-21T06:31:39.531Z,82.50
2023-02-21T06:32:39.351Z,80.80
2023-02-21T06:33:39.334Z,84.90
2023-02-21T06:34:39.304Z,79.40
2023-02-21T06:35:39.280Z,75.50
2023-02-21T06:36:39.276Z,81.30
2023-02-21T06:37:39.232Z,78.30
2023-02-21T06:38:39.205Z,80.30
2023-02-21T06:39:39.190Z,81.90
2023-02-21T06:40:39.162Z,80.80
2023-02-21T06:41:39.125Z,84.00
2023-02-21T06:42:39.099Z,78.10
2023-02-21T06:43:39.070Z,76.80
2023-02-21T06:44:39.052Z,76.90
2023-02-21T06:45:39.021Z,78.80
2023-02-21T06:46:38.995Z,77.70
2023-02-21T06:47:38.970Z,76.10
2023-02-21T06:48:38.945Z,77.00
2023-02-21T06:49:38.925Z,75.40
2023-02-21T06:50:38.896Z,75.60
2023-02-21T06:51:38.868Z,72.10
2023-02-21T06:52:38.864Z,79.10
2023-02-21T06:53:38.822Z,80.30
2023-02-21T06:54:38.793Z,71.80
2023-02-21T06:55:38.771Z,74.00
2023-02-21T06:56:38.754Z,76.00
2023-02-21T06:57:38.723Z,75.30
2023-02-21T06:58:38.688Z,74.80
2023-02-21T06:59:38.675Z,77.90
2023-02-21T07:00:38.639Z,71.90
2023-02-21T07:01:38.696Z,74.20
2023-02-21T07:02:38.588Z,72.80
2023-02-21T07:03:38.557Z,72.50
2023-02-21T07:04:38.652Z,66.80
2023-02-21T07:05:38.585Z,71.50
2023-02-21T07:06:38.481Z,73.10
2023-02-21T07:07:38.467Z,72.40
2023-02-21T07:08:38.460Z,67.00
2023-02-21T07:09:38.415Z,73.60
2023-02-21T07:10:38.383Z,70.90
2023-02-21T07:11:38.355Z,72.90
2023-02-21T07:12:38.327Z,68.70
2023-02-21T07:13:38.308Z,75.10
2023-02-21T07:14:38.280Z,70.70
2023-02-21T07:15:38.308Z,73.20
2023-02-21T07:16:38.226Z,70.20
2023-02-21T07:17:38.201Z,68.90
2023-02-21T07:18:38.175Z,75.20
2023-02-21T07:19:38.158Z,75.10
2023-02-21T07:20:39.424Z,76.20
2023-02-21T07:21:39.201Z,79.10
2023-02-21T07:22:38.075Z,80.10
2023-02-21T07:23:38.049Z,75.20
2023-02-21T07:24:38.040Z,78.10
2023-02-21T07:25:38.029Z,78.80
2023-02-21T07:26:37.963Z,81.10
2023-02-21T07:27:37.945Z,76.50
2023-02-21T07:28:37.911Z,85.80
2023-02-21T07:29:37.893Z,83.00
2023-02-21T07:30:37.944Z,77.60
2023-02-21T07:31:37.914Z,84.10
2023-02-21T07:32:37.816Z,83.70
2023-02-21T07:33:37.794Z,83.70
2023-02-21T07:34:37.763Z,80.90
2023-02-21T07:35:37.742Z,90.20
2023-02-21T07:36:39.967Z,80.40
2023-02-21T07:37:37.695Z,100.50
2023-02-21T07:38:37.671Z,88.30
2023-02-21T07:39:37.639Z,87.50
2023-02-21T07:40:37.624Z,90.20
2023-02-21T07:41:37.586Z,83.40
2023-02-21T07:42:37.554Z,85.70
2023-02-21T07:43:37.556Z,87.60
2023-02-21T07:44:37.517Z,90.70
2023-02-21T07:45:37.492Z,84.70
2023-02-21T07:46:37.522Z,86.80
2023-02-21T07:47:37.432Z,85.20
2023-02-21T07:48:37.406Z,89.10
2023-02-21T07:49:37.382Z,87.90
2023-02-21T07:50:37.349Z,88.60
2023-02-21T07:51:37.336Z,86.10
2023-02-21T07:52:37.297Z,85.80
2023-02-21T07:53:37.283Z,92.70
2023-02-21T07:54:37.254Z,92.00
2023-02-21T07:55:37.229Z,89.00
2023-02-21T07:56:37.234Z,94.10
2023-02-21T07:57:37.190Z,87.10
2023-02-21T07:58:37.143Z,91.70
2023-02-21T07:59:37.127Z,93.40
2023-02-21T08:00:40.255Z,85.20
2023-02-21T08:01:37.094Z,89.70
2023-02-21T08:02:37.043Z,86.00
2023-02-21T08:03:37.022Z,93.00
2023-02-21T08:04:37.043Z,91.60
2023-02-21T08:05:36.978Z,90.80
2023-02-21T08:06:36.954Z,95.70
2023-02-21T08:07:36.941Z,96.00
2023-02-21T08:08:36.892Z,91.10
2023-02-21T08:09:36.873Z,92.60
2023-02-21T08:10:36.838Z,88.90
2023-02-21T08:11:36.845Z,98.20
2023-02-21T08:12:36.841Z,92.90
2023-02-21T08:13:36.770Z,91.70
2023-02-21T08:14:36.730Z,92.50
2023-02-21T08:15:36.745Z,93.40
2023-02-21T08:16:36.766Z,95.00
2023-02-21T08:17:36.660Z,90.10
2023-02-21T08:18:36.633Z,90.30
2023-02-21T08:19:36.618Z,93.10
2023-02-21T08:20:36.584Z,85.00
2023-02-21T08:21:36.557Z,92.10
2023-02-21T08:22:36.523Z,98.10
2023-02-21T08:23:36.517Z,94.80
2023-02-21T08:24:36.475Z,91.40
2023-02-21T08:25:36.457Z,89.50
2023-02-21T08:26:36.421Z,99.80
2023-02-21T08:27:36.406Z,96.20
2023-02-21T08:28:36.393Z,96.30
2023-02-21T08:29:36.357Z,99.90
2023-02-21T08:30:36.342Z,94.40
2023-02-21T08:31:36.358Z,94.70
2023-02-21T08:32:36.273Z,95.40
2023-02-21T08:33:36.261Z,92.80
2023-02-21T08:34:36.225Z,97.90
2023-02-21T08:35:36.201Z,90.90
2023-02-21T08:36:36.183Z,94.50
2023-02-21T08:37:36.158Z,94.00
2023-02-21T08:38:36.117Z,93.60
2023-02-21T08:39:36.094Z,91.50
2023-02-21T08:40:36.065Z,89.60
2023-02-21T08:41:36.046Z,95.00
2023-02-21T08:42:36.012Z,91.80
2023-02-21T08:43:35.998Z,95.20
2023-02-21T08:44:35.980Z,96.60
2023-02-21T08:45:35.944Z,91.50
2023-02-21T08:46:36.029Z,95.20
2023-02-21T08:47:35.900Z,94.50
2023-02-21T08:48:35.862Z,93.40
2023-02-21T08:49:35.846Z,95.90
2023-02-21T08:50:35.816Z,99.80
2023-02-21T08:51:35.792Z,100.60
2023-02-21T08:52:35.770Z,100.90
2023-02-21T08:53:35.740Z,95.00
2023-02-21T08:54:35.710Z,91.80
2023-02-21T08:55:35.687Z,96.30
2023-02-21T08:56:35.662Z,95.10
2023-02-21T08:57:35.652Z,91.80
2023-02-21T08:58:37.898Z,95.20
2023-02-21T08:59:35.669Z,100.60
2023-02-21T09:00:35.573Z,101.40
2023-02-21T09:01:35.542Z,94.70
2023-02-21T09:02:35.510Z,91.40
2023-02-21T09:03:35.486Z,93.50
2023-02-21T09:04:35.454Z,91.90
2023-02-21T09:05:35.440Z,97.50
2023-02-21T09:06:35.418Z,97.20
2023-02-21T09:07:35.390Z,91.00
2023-02-21T09:08:35.361Z,98.80
2023-02-21T09:09:35.340Z,102.90
2023-02-21T09:10:35.372Z,104.20
2023-02-21T09:11:35.284Z,103.80
2023-02-21T09:12:35.253Z,123.20
2023-02-21T09:13:35.228Z,111.10
2023-02-21T09:14:35.196Z,117.40
2023-02-21T09:15:35.180Z,102.90
2023-02-21T09:16:35.194Z,100.90
2023-02-21T09:17:35.129Z,109.90
2023-02-21T09:18:35.094Z,97.70
2023-02-21T09:19:35.083Z,105.30
2023-02-21T09:20:35.047Z,98.70
2023-02-21T09:21:35.024Z,94.60
2023-02-21T09:22:34.995Z,99.20
2023-02-21T09:23:34.989Z,99.60
2023-02-21T09:24:34.952Z,102.40
2023-02-21T09:25:34.934Z,94.40
2023-02-21T09:26:34.905Z,95.90
2023-02-21T09:27:34.872Z,91.30
2023-02-21T09:28:34.840Z,90.90
2023-02-21T09:29:45.468Z,89.80
2023-02-21T09:30:34.940Z,94.40
2023-02-21T09:31:34.796Z,96.20
2023-02-21T09:32:34.807Z,99.90
2023-02-21T09:33:34.721Z,105.80
2023-02-21T09:34:34.688Z,103.80
2023-02-21T09:35:34.676Z,132.50
2023-02-21T09:36:34.632Z,104.40
2023-02-21T09:37:34.621Z,102.80
2023-02-21T09:38:34.588Z,104.10
2023-02-21T09:39:34.568Z,97.40
2023-02-21T09:40:34.533Z,96.00
2023-02-21T09:41:34.518Z,87.60
2023-02-21T09:42:34.486Z,86.80
2023-02-21T09:43:34.462Z,96.20
2023-02-21T09:44:34.432Z,86.90
2023-02-21T09:45:34.532Z,96.70
2023-02-21T09:46:34.377Z,88.90
2023-02-21T09:47:34.361Z,85.80
2023-02-21T09:48:34.355Z,87.80
2023-02-21T09:49:34.313Z,87.90
2023-02-21T09:50:34.295Z,86.40
2023-02-21T09:51:34.255Z,86.50
2023-02-21T09:52:34.236Z,81.20
2023-02-21T09:53:34.216Z,82.60
2023-02-21T09:54:34.170Z,81.20
2023-02-21T09:55:34.153Z,81.20
2023-02-21T09:56:34.132Z,81.30
2023-02-21T09:57:34.101Z,86.60
2023-02-21T09:58:34.072Z,79.30
2023-02-21T09:59:34.040Z,84.10
2023-02-21T10:00:34.021Z,81.60
2023-02-21T10:01:34.069Z,75.90
2023-02-21T10:02:33.971Z,70.90
2023-02-21T10:03:33.936Z,75.50
2023-02-21T10:04:33.973Z,74.10
2023-02-21T10:05:33.895Z,79.30
2023-02-21T10:06:33.880Z,73.80
2023-02-21T10:07:33.837Z,77.20
2023-02-21T10:08:33.827Z,74.80
2023-02-21T10:09:33.789Z,79.20
2023-02-21T10:10:33.761Z,75.60
2023-02-21T10:11:33.735Z,69.00
2023-02-21T10:12:33.719Z,71.80
2023-02-21T10:13:33.683Z,74.60
2023-02-21T10:14:33.666Z,73.60
2023-02-21T10:15:33.645Z,68.80
2023-02-21T10:16:33.676Z,69.90
2023-02-21T10:17:33.591Z,74.60
2023-02-21T10:18:33.570Z,70.10
2023-02-21T10:19:33.531Z,73.20
2023-02-21T10:20:33.540Z,69.10
2023-02-21T10:21:33.507Z,75.90
2023-02-21T10:22:33.467Z,69.10
2023-02-21T10:23:33.431Z,70.10
2023-02-21T10:24:33.413Z,70.20
2023-02-21T10:25:33.374Z,65.80
2023-02-21T10:26:33.371Z,67.00
2023-02-21T10:27:33.348Z,67.60
2023-02-21T10:28:33.306Z,60.20
2023-02-21T10:29:33.274Z,68.50
2023-02-21T10:30:33.335Z,65.10
2023-02-21T10:31:33.329Z,62.80
2023-02-21T10:32:33.234Z,60.60
2023-02-21T10:33:33.176Z,59.20
2023-02-21T10:34:33.156Z,61.00
2023-02-21T10:35:33.128Z,62.90
2023-02-21T10:36:33.122Z,61.90
2023-02-21T10:37:33.138Z,57.20
2023-02-21T10:38:33.065Z,59.10
2023-02-21T10:39:33.022Z,56.50
2023-02-21T10:40:33.002Z,54.60
2023-02-21T10:41:32.967Z,56.00
2023-02-21T10:42:32.958Z,60.00
2023-02-21T10:43:32.920Z,54.90
2023-02-21T10:44:32.897Z,55.80
2023-02-21T10:45:32.869Z,55.00
2023-02-21T10:46:32.849Z,56.60
2023-02-21T10:47:32.811Z,56.00
2023-02-21T10:48:32.801Z,58.50
2023-02-21T10:49:32.761Z,47.40
2023-02-21T10:50:32.747Z,55.00
2023-02-21T10:51:32.728Z,59.10
2023-02-21T10:52:33.681Z,54.80
2023-02-21T10:53:32.660Z,55.90
2023-02-21T10:54:35.138Z,49.50
2023-02-21T10:55:33.600Z,53.70
2023-02-21T10:56:32.594Z,54.40
2023-02-21T10:57:32.557Z,51.40
2023-02-21T10:58:32.540Z,51.50
2023-02-21T10:59:32.508Z,55.10
2023-02-21T11:00:32.491Z,50.50
2023-02-21T11:01:32.641Z,51.60
2023-02-21T11:02:32.491Z,50.40
2023-02-21T11:03:32.416Z,53.40
2023-02-21T11:04:32.388Z,50.70
2023-02-21T11:05:32.361Z,52.20
2023-02-21T11:06:32.346Z,51.50
2023-02-21T11:07:32.304Z,50.60
2023-02-21T11:08:32.306Z,50.40
2023-02-21T11:09:32.259Z,51.70
2023-02-21T11:10:32.252Z,48.40
2023-02-21T11:11:32.208Z,55.10
2023-02-21T11:12:32.187Z,46.70
2023-02-21T11:13:32.148Z,49.40
2023-02-21T11:14:32.142Z,45.40
2023-02-21T11:15:32.145Z,50.10
2023-02-21T11:16:32.084Z,48.50
2023-02-21T11:17:32.052Z,48.10
2023-02-21T11:18:32.035Z,48.00
2023-02-21T11:19:31.998Z,45.70
2023-02-21T11:20:31.979Z,43.70
2023-02-21T11:21:31.968Z,42.80
2023-02-21T11:22:34.355Z,42.60
2023-02-21T11:23:31.902Z,43.90
2023-02-21T11:24:31.890Z,47.50
2023-02-21T11:25:31.848Z,45.70
2023-02-21T11:26:31.821Z,45.40
2023-02-21T11:27:31.807Z,43.90
2023-02-21T11:28:31.785Z,43.20
2023-02-21T11:29:31.746Z,44.00
2023-02-21T11:30:31.767Z,47.40
2023-02-21T11:31:31.871Z,44.30
2023-02-21T11:32:31.668Z,43.10
2023-02-21T11:33:31.646Z,48.50
2023-02-21T11:34:31.625Z,42.70
2023-02-21T11:35:31.603Z,41.60
2023-02-21T11:36:31.574Z,47.30
2023-02-21T11:37:31.547Z,46.40
2023-02-21T11:38:31.525Z,44.20
2023-02-21T11:39:31.496Z,43.20
2023-02-21T11:40:31.508Z,42.30
2023-02-21T11:41:31.447Z,40.40
2023-02-21T11:42:31.426Z,42.20
2023-02-21T11:43:31.401Z,43.60
2023-02-21T11:44:31.392Z,40.10
2023-02-21T11:45:31.342Z,40.90
2023-02-21T11:46:31.315Z,41.40
2023-02-21T11:47:31.295Z,39.20
2023-02-21T11:48:31.347Z,41.20
2023-02-21T11:49:31.253Z,38.80
2023-02-21T11:50:31.235Z,40.40
2023-02-21T11:51:31.220Z,39.80
2023-02-21T11:52:31.186Z,42.20
2023-02-21T11:53:31.143Z,38.00
2023-02-21T11:54:31.122Z,40.30
2023-02-21T11:55:31.087Z,40.40
2023-02-21T11:56:31.080Z,39.10
2023-02-21T11:57:31.037Z,36.20
2023-02-21T11:58:31.012Z,40.80
2023-02-21T11:59:30.981Z,38.70
2023-02-21T12:00:30.967Z,37.70
2023-02-21T12:01:30.933Z,38.00
2023-02-21T12:02:30.939Z,34.90
2023-02-21T12:03:30.878Z,35.50
2023-02-21T12:04:30.861Z,37.70
2023-02-21T12:05:30.917Z,38.80
2023-02-21T12:06:30.824Z,36.80
2023-02-21T12:07:30.769Z,35.00
2023-02-21T12:08:30.756Z,38.50
2023-02-21T12:09:30.733Z,35.80
2023-02-21T12:10:30.709Z,36.30
2023-02-21T12:11:30.675Z,35.60
2023-02-21T12:12:30.678Z,37.70
2023-02-21T12:13:30.638Z,35.70
2023-02-21T12:14:30.598Z,33.80
2023-02-21T12:15:30.739Z,36.20
2023-02-21T12:16:30.556Z,36.40
2023-02-21T12:17:30.528Z,34.80
2023-02-21T12:18:30.497Z,34.20
2023-02-21T12:19:30.471Z,33.80
2023-02-21T12:20:30.445Z,33.90
2023-02-21T12:21:30.422Z,33.80
2023-02-21T12:22:30.405Z,34.00
2023-02-21T12:23:30.371Z,37.50
2023-02-21T12:24:30.356Z,33.50
2023-02-21T12:25:30.311Z,32.30
2023-02-21T12:26:30.296Z,34.90
2023-02-21T12:27:30.262Z,30.00
2023-02-21T12:28:30.267Z,33.00
2023-02-21T12:29:30.219Z,31.40
2023-02-21T12:30:30.237Z,30.50
2023-02-21T12:31:30.248Z,32.90
2023-02-21T12:32:30.151Z,34.00
2023-02-21T12:33:30.119Z,28.80
2023-02-21T12:34:30.110Z,30.50
2023-02-21T12:35:30.126Z,32.20
2023-02-21T12:36:30.053Z,33.20
2023-02-21T12:37:30.016Z,33.20
2023-02-21T12:38:29.992Z,31.40
2023-02-21T12:39:29.960Z,33.40
2023-02-21T12:40:29.943Z,33.60
2023-02-21T12:41:29.932Z,31.90
2023-02-21T12:42:29.897Z,33.90
2023-02-21T12:43:29.863Z,30.90
2023-02-21T12:44:31.177Z,34.20
2023-02-21T12:45:29.810Z,33.60
2023-02-21T12:46:29.913Z,35.10
2023-02-21T12:47:29.774Z,34.10
2023-02-21T12:48:29.744Z,34.60
2023-02-21T12:49:29.712Z,32.80
2023-02-21T12:50:31.210Z,34.50
2023-02-21T12:51:29.662Z,34.50